Time;durP1;ratioP1;P1;durP2;ratioP2;P2;SDS_P1;SDS_P2;PMS_P1;PMS_P2;Temp;Humidity;BMP_temperature;BMP_pressure;BME280_temperature;BME280_humidity;BME280_pressure;Samples;Min_cycle;Max_cycle;Signal;HPM_P1;HPM_P2
2022/05/17 00:00:33;;;;;;;9.27;7.40;;;15.90;99.90;;;;;;5052545;28;20465;-72
2022/05/17 00:03:00;;;;;;;13.10;9.03;;;15.80;99.90;;;;;;5054738;28;20604;-72
2022/05/17 00:05:27;;;;;;;8.60;6.30;;;15.80;99.90;;;;;;5058657;28;20792;-71
2022/05/17 00:07:54;;;;;;;11.67;7.57;;;15.70;99.90;;;;;;5056474;28;20433;-74
2022/05/17 00:10:22;;;;;;;13.43;7.53;;;15.70;99.90;;;;;;5063059;28;20458;-72
2022/05/17 00:12:51;;;;;;;10.33;6.83;;;15.70;99.90;;;;;;5056647;28;20509;-72
2022/05/17 00:15:17;;;;;;;8.70;6.07;;;15.70;99.90;;;;;;5061924;28;20482;-72
2022/05/17 00:17:44;;;;;;;8.63;6.73;;;15.70;99.90;;;;;;5058370;28;20934;-71
2022/05/17 00:20:13;;;;;;;10.07;7.17;;;15.70;99.90;;;;;;5060636;28;20450;-72
2022/05/17 00:22:40;;;;;;;10.17;7.90;;;15.70;99.90;;;;;;5060822;28;20480;-72
2022/05/17 00:25:08;;;;;;;9.13;6.60;;;15.70;99.90;;;;;;5061425;28;20444;-72
2022/05/17 00:27:35;;;;;;;10.77;5.90;;;15.70;99.90;;;;;;5058360;28;20528;-72
2022/05/17 00:30:06;;;;;;;8.63;6.80;;;15.70;99.90;;;;;;5060533;28;20440;-72
2022/05/17 00:32:33;;;;;;;7.97;6.40;;;15.60;99.90;;;;;;5062704;28;20478;-71
2022/05/17 00:35:00;;;;;;;8.40;6.30;;;15.50;99.90;;;;;;5063669;28;20467;-71
2022/05/17 00:37:26;;;;;;;8.07;6.20;;;15.50;99.90;;;;;;5057705;28;20442;-71
2022/05/17 00:39:53;;;;;;;8.47;6.93;;;15.50;99.90;;;;;;5058904;28;20573;-71
2022/05/17 00:42:20;;;;;;;9.90;7.50;;;15.50;99.90;;;;;;5068727;22;20726;-77
2022/05/17 00:44:46;;;;;;;6.43;5.80;;;15.40;99.90;;;;;;5045911;28;20456;-77
2022/05/17 00:47:19;;;;;;;7.57;6.40;;;15.40;99.90;;;;;;5043405;28;20436;-77
2022/05/17 00:49:51;;;;;;;12.60;6.57;;;15.40;99.90;;;;;;5051834;28;20194;-77
2022/05/17 00:52:20;;;;;;;8.50;5.70;;;15.40;99.90;;;;;;5042119;28;20540;-77
2022/05/17 00:54:48;;;;;;;13.10;7.60;;;15.40;99.90;;;;;;5034982;28;20605;-77
2022/05/17 00:57:23;;;;;;;7.20;5.80;;;15.30;99.90;;;;;;5042997;28;20465;-78
2022/05/17 00:59:50;;;;;;;8.30;6.90;;;15.30;99.90;;;;;;5038954;28;20466;-78
2022/05/17 01:02:18;;;;;;;12.53;9.10;;;15.20;99.90;;;;;;5038846;28;20492;-77
2022/05/17 01:04:45;;;;;;;9.33;6.40;;;15.00;99.90;;;;;;5045057;28;21757;-76
2022/05/17 01:07:17;;;;;;;6.63;5.80;;;15.00;99.90;;;;;;5039298;28;21132;-76
2022/05/17 01:09:44;;;;;;;9.53;7.07;;;15.00;99.90;;;;;;5038261;28;20461;-77
2022/05/17 01:12:11;;;;;;;9.10;6.67;;;15.00;99.90;;;;;;5039577;28;20554;-77
2022/05/17 01:17:24;;;;;;;9.93;6.60;;;15.00;99.90;;;;;;5040924;28;20895;-77
2022/05/17 01:19:51;;;;;;;7.80;7.00;;;15.00;99.90;;;;;;5040403;28;20465;-76
2022/05/17 01:22:19;;;;;;;11.63;9.47;;;15.10;99.90;;;;;;5035529;28;20563;-77
2022/05/17 01:24:45;;;;;;;9.03;6.50;;;15.10;99.90;;;;;;5035497;28;20509;-77
2022/05/17 01:27:19;;;;;;;10.90;7.10;;;15.10;99.90;;;;;;5032916;28;20986;-77
2022/05/17 01:29:47;;;;;;;19.50;8.87;;;15.10;99.90;;;;;;5032852;28;20543;-77
2022/05/17 01:32:15;;;;;;;9.60;7.67;;;15.00;99.90;;;;;;5038416;28;20904;-77
2022/05/17 01:34:42;;;;;;;13.50;8.00;;;15.10;99.90;;;;;;5037697;28;20472;-76
2022/05/17 01:37:10;;;;;;;8.77;7.00;;;15.10;99.90;;;;;;5032935;28;20536;-76
2022/05/17 01:39:39;;;;;;;13.77;7.83;;;15.00;99.90;;;;;;5027320;28;20551;-76
2022/05/17 01:42:07;;;;;;;11.67;7.27;;;15.00;99.90;;;;;;5029197;28;20542;-78
2022/05/17 01:44:35;;;;;;;9.83;7.97;;;14.90;99.90;;;;;;5040455;28;21248;-75
2022/05/17 01:47:02;;;;;;;10.30;8.23;;;14.80;99.90;;;;;;5035416;28;20891;-76
2022/05/17 01:49:28;;;;;;;10.97;6.90;;;14.60;99.90;;;;;;5032773;28;20489;-76
2022/05/17 01:51:56;;;;;;;8.93;7.33;;;14.60;99.90;;;;;;5032543;28;20863;-76
2022/05/17 01:54:23;;;;;;;9.90;6.33;;;14.70;99.90;;;;;;5040196;28;20552;-76
2022/05/17 01:56:51;;;;;;;9.70;7.17;;;14.70;99.90;;;;;;5033004;28;20464;-76
2022/05/17 01:59:18;;;;;;;9.90;6.53;;;14.60;99.90;;;;;;5028266;28;20527;-77
2022/05/17 02:01:45;;;;;;;10.90;7.27;;;14.50;99.90;;;;;;5026863;28;20913;-76
2022/05/17 02:04:12;;;;;;;10.07;6.40;;;14.60;99.90;;;;;;5028018;28;20863;-76
2022/05/17 02:06:39;;;;;;;8.77;7.03;;;14.60;99.90;;;;;;5035245;28;20608;-76
2022/05/17 02:09:06;;;;;;;9.70;5.93;;;14.60;99.90;;;;;;5034043;28;20956;-76
2022/05/17 02:11:33;;;;;;;10.10;6.73;;;14.60;99.90;;;;;;5030803;28;20543;-76
2022/05/17 02:14:01;;;;;;;11.33;7.60;;;14.50;99.90;;;;;;5040205;28;20477;-76
2022/05/17 02:16:28;;;;;;;23.90;7.13;;;14.50;99.90;;;;;;5030251;28;21421;-76
2022/05/17 02:18:55;;;;;;;10.07;6.20;;;14.50;99.90;;;;;;5041008;28;20493;-76
2022/05/17 02:21:22;;;;;;;9.97;6.87;;;14.50;99.90;;;;;;5032599;28;21046;-75
2022/05/17 02:23:48;;;;;;;7.93;7.13;;;14.50;99.90;;;;;;5033101;28;20557;-77
2022/05/17 02:26:15;;;;;;;8.47;6.70;;;14.50;99.90;;;;;;5030812;28;20581;-77
2022/05/17 02:28:43;;;;;;;9.20;5.90;;;14.40;99.90;;;;;;5031528;28;20658;-77
2022/05/17 02:31:13;;;;;;;9.70;5.90;;;14.40;99.90;;;;;;5029585;28;20476;-77
2022/05/17 02:33:40;;;;;;;8.70;6.73;;;14.30;99.90;;;;;;5036426;28;20486;-77
2022/05/17 02:36:06;;;;;;;7.70;5.90;;;14.40;99.90;;;;;;5032923;28;20516;-77
2022/05/17 02:38:33;;;;;;;10.53;6.50;;;14.30;99.90;;;;;;5028207;28;20461;-77
2022/05/17 02:41:00;;;;;;;11.97;7.23;;;14.30;99.90;;;;;;5033303;28;20513;-77
2022/05/17 02:43:26;;;;;;;8.13;5.47;;;14.30;99.90;;;;;;5024882;28;20489;-77
2022/05/17 02:45:54;;;;;;;12.97;6.83;;;14.30;99.90;;;;;;5038562;28;20731;-77
2022/05/17 02:48:21;;;;;;;9.90;7.30;;;14.10;99.90;;;;;;5030944;28;20452;-77
2022/05/17 02:50:48;;;;;;;11.77;8.10;;;14.10;99.90;;;;;;5029614;28;20465;-77
2022/05/17 02:53:15;;;;;;;18.90;7.77;;;14.00;99.90;;;;;;5034181;28;20490;-77
2022/05/17 02:55:42;;;;;;;12.10;6.83;;;13.80;99.90;;;;;;5038734;28;20511;-77
2022/05/17 02:58:08;;;;;;;12.10;7.60;;;13.90;99.90;;;;;;5040987;28;20435;-76
2022/05/17 03:00:35;;;;;;;9.00;6.80;;;14.00;99.90;;;;;;5039377;28;20452;-76
2022/05/17 03:03:02;;;;;;;9.50;6.10;;;14.00;99.90;;;;;;5038075;28;20467;-77
2022/05/17 03:05:30;;;;;;;14.53;7.50;;;14.00;99.90;;;;;;5039869;28;20487;-77
2022/05/17 03:07:57;;;;;;;8.73;6.63;;;14.10;99.90;;;;;;5035815;28;20763;-77
2022/05/17 03:10:24;;;;;;;9.63;6.70;;;14.10;99.90;;;;;;5043844;28;20443;-76
2022/05/17 03:12:50;;;;;;;8.93;5.87;;;14.00;99.90;;;;;;5042788;28;21191;-77
2022/05/17 03:15:21;;;;;;;9.57;6.40;;;14.10;99.90;;;;;;5042028;28;20600;-77
2022/05/17 03:17:48;;;;;;;8.60;6.70;;;14.30;99.90;;;;;;5043558;28;20546;-77
2022/05/17 03:20:15;;;;;;;9.10;6.80;;;14.30;99.90;;;;;;5036140;28;20568;-76
2022/05/17 03:22:43;;;;;;;12.43;7.13;;;14.30;99.90;;;;;;5037033;28;20980;-76
2022/05/17 03:25:10;;;;;;;10.30;8.50;;;14.30;99.90;;;;;;5038505;28;21085;-76
2022/05/17 03:27:37;;;;;;;11.10;6.83;;;14.30;99.90;;;;;;5041533;28;20997;-76
2022/05/17 03:30:05;;;;;;;8.87;6.43;;;14.20;99.90;;;;;;5026160;28;20467;-76
2022/05/17 03:32:32;;;;;;;11.33;6.70;;;14.30;99.90;;;;;;5039343;28;20485;-76
2022/05/17 03:34:59;;;;;;;8.63;7.20;;;14.40;99.90;;;;;;5040024;28;20453;-76
2022/05/17 03:37:26;;;;;;;11.63;7.03;;;14.50;99.90;;;;;;5039324;28;20477;-76
2022/05/17 03:39:53;;;;;;;10.20;6.60;;;14.50;99.90;;;;;;5039616;28;20645;-76
2022/05/17 03:42:20;;;;;;;9.33;6.80;;;14.60;99.90;;;;;;5028988;28;20494;-76
2022/05/17 03:44:47;;;;;;;8.57;6.67;;;14.60;99.90;;;;;;5029049;28;20456;-77
2022/05/17 03:47:15;;;;;;;8.50;5.80;;;14.60;99.90;;;;;;5036130;28;20440;-77
2022/05/17 03:49:42;;;;;;;8.70;6.23;;;14.60;99.90;;;;;;5036416;28;20542;-77
2022/05/17 03:52:13;;;;;;;11.00;7.30;;;14.60;99.90;;;;;;5032890;28;20523;-79
2022/05/17 03:54:41;;;;;;;10.73;7.33;;;14.60;99.90;;;;;;5042677;28;21196;-77
2022/05/17 03:57:09;;;;;;;6.77;5.40;;;14.60;99.90;;;;;;5032456;28;21316;-77
2022/05/17 03:59:36;;;;;;;12.40;6.67;;;14.60;99.90;;;;;;5038974;28;21069;-77
2022/05/17 04:02:03;;;;;;;12.27;6.57;;;14.70;99.90;;;;;;5031038;28;20441;-77
2022/05/17 04:04:30;;;;;;;7.80;5.97;;;14.70;99.90;;;;;;5037210;28;20753;-77
2022/05/17 04:06:56;;;;;;;13.57;8.57;;;14.80;99.90;;;;;;5045054;28;20676;-77
2022/05/17 04:09:23;;;;;;;8.17;6.40;;;14.80;99.90;;;;;;5043693;28;20905;-77
2022/05/17 04:11:49;;;;;;;9.90;6.60;;;15.00;99.90;;;;;;5044193;28;20509;-77
2022/05/17 04:14:17;;;;;;;7.27;5.70;;;15.00;99.90;;;;;;5049267;28;20515;-77
2022/05/17 04:16:44;;;;;;;8.77;7.60;;;15.10;99.90;;;;;;5049111;28;21091;-77
2022/05/17 04:19:14;;;;;;;13.57;7.20;;;15.20;99.90;;;;;;5049150;28;20519;-77
2022/05/17 04:21:40;;;;;;;8.87;6.13;;;15.20;99.90;;;;;;5046187;28;20548;-77
2022/05/17 04:24:07;;;;;;;9.97;7.93;;;15.30;99.90;;;;;;5047418;28;20478;-78
2022/05/17 04:26:34;;;;;;;12.80;6.97;;;15.30;99.90;;;;;;5041266;28;20457;-78
2022/05/17 04:29:01;;;;;;;9.27;5.77;;;15.40;99.90;;;;;;5048148;28;20597;-77
2022/05/17 04:31:29;;;;;;;8.57;6.73;;;15.40;99.90;;;;;;5046093;28;20466;-78
2022/05/17 04:33:56;;;;;;;10.90;7.70;;;15.40;99.90;;;;;;5045184;28;20493;-77
2022/05/17 04:36:23;;;;;;;11.10;9.07;;;15.50;99.90;;;;;;5043636;28;20485;-78
2022/05/17 04:38:50;;;;;;;18.00;7.50;;;15.50;99.90;;;;;;5042487;28;20536;-78
2022/05/17 04:41:16;;;;;;;11.20;7.63;;;15.60;99.90;;;;;;5047524;28;20462;-78
2022/05/17 04:43:43;;;;;;;13.20;7.23;;;15.70;99.90;;;;;;5043907;28;20493;-78
2022/05/17 04:46:10;;;;;;;9.43;6.20;;;15.70;99.90;;;;;;5044025;28;20513;-78
2022/05/17 04:48:39;;;;;;;10.40;6.60;;;15.80;99.90;;;;;;5038243;28;20469;-78
2022/05/17 04:51:09;;;;;;;12.23;7.60;;;15.80;99.90;;;;;;5043409;28;20580;-78
2022/05/17 04:53:36;;;;;;;11.60;7.57;;;15.90;99.90;;;;;;5044553;28;20567;-78
2022/05/17 04:56:04;;;;;;;8.47;6.43;;;16.00;99.90;;;;;;5043442;28;20537;-78
2022/05/17 04:58:30;;;;;;;10.40;7.87;;;16.10;99.90;;;;;;5040489;28;20997;-78
2022/05/17 05:00:57;;;;;;;10.90;8.67;;;16.20;99.90;;;;;;5041624;28;20734;-78
2022/05/17 05:03:24;;;;;;;11.73;7.03;;;16.20;99.90;;;;;;5041278;28;21034;-78
2022/05/17 05:05:52;;;;;;;12.03;7.00;;;16.20;99.90;;;;;;5044331;28;20907;-78
2022/05/17 05:08:19;;;;;;;8.43;7.03;;;16.20;99.90;;;;;;5040396;28;20936;-78
2022/05/17 05:10:45;;;;;;;8.63;6.87;;;16.30;99.90;;;;;;5041396;28;20462;-76
2022/05/17 05:13:14;;;;;;;9.43;6.70;;;16.20;99.90;;;;;;5046246;28;20483;-78
2022/05/17 05:15:41;;;;;;;10.53;6.40;;;16.30;99.90;;;;;;5042963;28;20485;-75
2022/05/17 05:18:08;;;;;;;9.73;7.00;;;16.50;99.90;;;;;;5045882;28;20507;-76
2022/05/17 05:20:35;;;;;;;17.83;8.53;;;16.80;99.90;;;;;;5051306;28;20986;-78
2022/05/17 05:23:04;;;;;;;13.47;7.93;;;17.20;99.90;;;;;;5048405;28;20520;-77
2022/05/17 05:25:30;;;;;;;9.80;6.00;;;17.40;99.90;;;;;;5043267;28;20461;-77
2022/05/17 05:27:57;;;;;;;10.67;7.60;;;17.70;99.90;;;;;;5043342;28;20455;-77
2022/05/17 05:30:24;;;;;;;8.67;6.37;;;18.10;99.90;;;;;;5043243;28;20474;-77
2022/05/17 05:32:50;;;;;;;9.17;5.40;;;18.50;99.90;;;;;;5044507;28;20695;-77
2022/05/17 05:35:20;;;;;;;7.47;5.40;;;18.70;99.90;;;;;;5046003;28;20523;-76
2022/05/17 05:37:47;;;;;;;10.50;5.17;;;18.80;99.90;;;;;;5046935;28;20489;-77
2022/05/17 05:40:16;;;;;;;13.37;5.80;;;18.70;99.90;;;;;;5043560;28;20486;-77
2022/05/17 05:42:43;;;;;;;10.33;6.60;;;18.70;99.90;;;;;;5047059;28;21737;-78
2022/05/17 05:45:12;;;;;;;9.30;5.83;;;18.80;99.90;;;;;;5046209;28;20515;-78
2022/05/17 05:47:39;;;;;;;8.53;6.80;;;18.80;99.90;;;;;;5044027;28;20599;-77
2022/05/17 05:50:07;;;;;;;11.53;6.80;;;18.80;99.90;;;;;;5048979;28;20462;-78
2022/05/17 05:52:34;;;;;;;12.53;6.90;;;18.90;99.90;;;;;;5047410;28;20970;-78
2022/05/17 05:55:01;;;;;;;6.50;5.77;;;19.00;99.90;;;;;;5042018;28;20546;-78
2022/05/17 05:57:29;;;;;;;8.63;6.33;;;18.90;99.90;;;;;;5045602;28;20494;-78
2022/05/17 05:59:57;;;;;;;10.40;6.67;;;19.00;99.90;;;;;;5038226;28;20465;-79
2022/05/17 06:02:23;;;;;;;9.00;6.37;;;19.10;99.90;;;;;;5039574;28;20837;-79
2022/05/17 06:04:50;;;;;;;10.37;5.93;;;19.20;99.90;;;;;;5041735;28;20458;-78
2022/05/17 06:07:17;;;;;;;16.93;6.40;;;19.40;99.90;;;;;;5047715;28;20958;-78
2022/05/17 06:09:44;;;;;;;11.10;7.40;;;19.40;99.90;;;;;;5043658;28;20466;-78
2022/05/17 06:12:11;;;;;;;13.07;6.57;;;19.30;99.90;;;;;;5043240;28;20994;-79
2022/05/17 06:14:39;;;;;;;8.90;6.77;;;19.30;99.90;;;;;;5048750;28;20467;-79
2022/05/17 06:17:06;;;;;;;10.23;5.90;;;19.40;99.90;;;;;;5049538;28;20483;-78
2022/05/17 06:19:34;;;;;;;7.00;5.40;;;19.60;99.90;;;;;;5045044;28;20574;-78
2022/05/17 06:22:01;;;;;;;8.37;5.97;;;20.00;99.90;;;;;;5045620;28;20462;-78
2022/05/17 06:24:28;;;;;;;11.07;5.70;;;20.00;99.90;;;;;;5042474;28;20760;-78
2022/05/17 06:26:55;;;;;;;9.20;7.20;;;20.30;99.90;;;;;;5038962;28;20458;-78
2022/05/17 06:29:22;;;;;;;6.33;5.30;;;20.80;99.90;;;;;;5043039;28;20512;-79
2022/05/17 06:31:50;;;;;;;7.53;5.10;;;21.10;99.90;;;;;;5044089;28;20466;-78
2022/05/17 06:34:16;;;;;;;16.13;4.60;;;21.20;99.90;;;;;;5042071;28;20468;-78
2022/05/17 06:36:43;;;;;;;8.63;4.70;;;21.20;99.90;;;;;;5043129;28;20495;-78
2022/05/17 06:39:11;;;;;;;13.47;5.67;;;20.90;99.90;;;;;;5041534;28;20466;-78
2022/05/17 06:41:37;;;;;;;5.93;5.33;;;20.70;99.90;;;;;;5045083;28;20684;-78
2022/05/17 06:44:05;;;;;;;13.30;5.20;;;20.60;99.90;;;;;;5058376;22;20510;-73
2022/05/17 06:46:32;;;;;;;11.30;4.97;;;20.80;99.90;;;;;;5033015;28;20458;-73
2022/05/17 06:49:00;;;;;;;9.23;6.13;;;21.00;99.90;;;;;;5033861;28;20461;-73
2022/05/17 06:51:27;;;;;;;10.83;6.30;;;21.30;99.90;;;;;;5037192;28;20470;-73
2022/05/17 06:53:54;;;;;;;5.77;4.40;;;21.50;99.90;;;;;;5037991;28;20482;-73
2022/05/17 06:56:20;;;;;;;10.43;4.30;;;21.70;99.90;;;;;;5039869;28;20490;-73
2022/05/17 06:58:47;;;;;;;8.73;5.30;;;21.80;99.90;;;;;;5038491;28;20459;-73
2022/05/17 07:01:14;;;;;;;8.87;5.30;;;22.10;99.90;;;;;;5032623;28;20475;-73
2022/05/17 07:03:42;;;;;;;6.53;4.33;;;22.20;99.90;;;;;;5029607;28;21074;-74
2022/05/17 07:06:10;;;;;;;6.43;4.30;;;22.20;99.90;;;;;;5037457;28;20474;-73
2022/05/17 07:08:40;;;;;;;9.27;4.87;;;22.10;99.90;;;;;;5039190;28;21104;-73
2022/05/17 07:13:52;;;;;;;7.93;4.83;;;22.20;99.90;;;;;;5039411;28;20478;-73
2022/05/17 07:16:19;;;;;;;8.53;5.13;;;22.60;99.90;;;;;;5033005;28;20482;-73
2022/05/17 07:18:47;;;;;;;8.00;4.00;;;22.90;99.90;;;;;;5036989;28;20523;-73
2022/05/17 07:21:16;;;;;;;6.33;4.63;;;23.00;99.90;;;;;;5030039;28;20904;-73
2022/05/17 07:23:43;;;;;;;7.50;5.67;;;22.90;99.90;;;;;;5037523;28;20479;-73
2022/05/17 07:26:11;;;;;;;8.43;5.13;;;23.10;99.90;;;;;;5038225;28;20466;-74
2022/05/17 07:28:40;;;;;;;10.63;5.90;;;23.40;99.90;;;;;;5037404;28;20485;-74
2022/05/17 07:31:07;;;;;;;8.83;6.13;;;23.30;99.90;;;;;;5033149;28;20458;-74
2022/05/17 07:33:34;;;;;;;8.47;5.17;;;23.30;99.90;;;;;;5035283;28;20494;-74
2022/05/17 07:36:01;;;;;;;8.33;5.10;;;23.50;99.90;;;;;;5039370;28;20471;-75
2022/05/17 07:38:29;;;;;;;11.93;4.37;;;23.30;99.90;;;;;;5033093;28;20545;-73
2022/05/17 07:40:56;;;;;;;7.17;5.23;;;23.20;99.90;;;;;;5040993;28;20851;-73
2022/05/17 07:43:23;;;;;;;9.50;4.03;;;23.30;99.90;;;;;;5038622;28;20511;-74
2022/05/17 07:45:50;;;;;;;11.90;4.23;;;23.50;99.90;;;;;;5037844;28;20478;-74
2022/05/17 07:48:17;;;;;;;8.50;5.67;;;23.20;99.90;;;;;;5037652;28;20467;-73
2022/05/17 07:50:44;;;;;;;6.40;3.70;;;22.90;99.90;;;;;;5040800;28;20457;-73
2022/05/17 07:53:13;;;;;;;10.17;5.13;;;22.90;99.90;;;;;;5041329;28;20463;-73
2022/05/17 07:55:42;;;;;;;7.77;3.80;;;22.90;99.90;;;;;;5039374;28;20466;-73
2022/05/17 07:58:15;;;;;;;14.23;6.43;;;23.00;99.90;;;;;;5032679;28;20480;-73
2022/05/17 08:00:43;;;;;;;9.00;4.63;;;22.80;99.90;;;;;;5035558;28;20458;-73
2022/05/17 08:03:12;;;;;;;14.77;4.53;;;22.70;99.90;;;;;;5038245;28;20982;-74
2022/05/17 08:05:39;;;;;;;5.80;4.57;;;22.60;99.90;;;;;;5036232;28;20825;-73
2022/05/17 08:08:06;;;;;;;5.77;3.50;;;22.50;99.90;;;;;;5041346;28;20459;-74
2022/05/17 08:10:32;;;;;;;7.33;4.43;;;22.50;99.90;;;;;;5038877;28;20468;-74
2022/05/17 08:13:00;;;;;;;7.40;4.23;;;22.40;99.90;;;;;;5038057;28;20520;-74
2022/05/17 08:15:28;;;;;;;5.80;4.53;;;22.40;99.90;;;;;;5033585;28;20491;-75
2022/05/17 08:17:56;;;;;;;6.33;3.77;;;22.60;99.90;;;;;;5041796;28;20487;-74
2022/05/17 08:20:23;;;;;;;8.67;5.50;;;22.70;99.90;;;;;;5039402;28;20554;-74
2022/05/17 08:22:49;;;;;;;10.17;5.03;;;22.60;99.90;;;;;;5035540;28;20547;-73
2022/05/17 08:28:05;;;;;;;7.70;4.47;;;22.30;99.90;;;;;;5035075;28;20454;-74
2022/05/17 08:30:33;;;;;;;13.83;5.03;;;22.00;99.90;;;;;;5037528;28;20877;-74
2022/05/17 08:33:17;;;;;;;12.13;4.50;;;22.00;99.90;;;;;;5037313;28;20466;-74
2022/05/17 08:35:48;;;;;;;14.90;4.93;;;22.00;99.90;;;;;;5038232;28;20460;-75
2022/05/17 08:38:17;;;;;;;6.87;5.40;;;22.10;99.90;;;;;;5037760;28;21036;-74
2022/05/17 08:41:01;;;;;;;7.33;5.47;;;22.10;99.90;;;;;;5034778;28;20467;-74
2022/05/17 08:43:42;;;;;;;13.23;5.57;;;22.10;99.90;;;;;;5037830;28;20553;-74
2022/05/17 08:46:22;;;;;;;5.27;3.53;;;22.10;99.90;;;;;;5035088;28;20947;-74
2022/05/17 08:48:52;;;;;;;19.67;5.53;;;22.30;99.90;;;;;;5038078;28;20463;-75
2022/05/17 08:51:26;;;;;;;8.97;4.73;;;22.20;99.90;;;;;;5034654;28;20590;-74
2022/05/17 08:53:57;;;;;;;14.33;5.43;;;22.20;99.90;;;;;;5037861;28;21003;-75
2022/05/17 08:56:29;;;;;;;12.83;5.50;;;22.30;99.90;;;;;;5039320;28;20554;-75
2022/05/17 08:58:59;;;;;;;11.73;5.10;;;22.50;99.90;;;;;;5037497;28;20608;-74
2022/05/17 09:01:33;;;;;;;12.70;5.93;;;22.50;99.90;;;;;;5035825;28;20474;-74
2022/05/17 09:04:19;;;;;;;10.73;5.83;;;22.50;99.90;;;;;;5029431;28;20486;-74
2022/05/17 09:06:54;;;;;;;15.20;5.73;;;22.40;99.90;;;;;;5036980;28;20542;-74
2022/05/17 09:09:42;;;;;;;6.90;4.77;;;22.80;99.90;;;;;;5038986;28;20966;-75
2022/05/17 09:12:24;;;;;;;9.17;5.50;;;22.70;99.90;;;;;;5041267;28;20590;-74
2022/05/17 09:14:57;;;;;;;10.80;4.77;;;22.60;99.90;;;;;;5040733;28;20553;-75
2022/05/17 09:17:25;;;;;;;11.33;4.67;;;22.60;99.90;;;;;;5039238;28;20489;-75
2022/05/17 09:19:53;;;;;;;6.70;3.63;;;22.60;99.90;;;;;;5032867;28;20463;-75
2022/05/17 09:22:21;;;;;;;14.67;3.40;;;22.60;99.90;;;;;;5033956;28;20958;-75
2022/05/17 09:24:55;;;;;;;9.97;4.47;;;22.30;99.90;;;;;;5039141;28;20554;-75
2022/05/17 09:27:26;;;;;;;8.20;3.53;;;22.40;99.90;;;;;;5040522;28;20463;-75
2022/05/17 09:30:13;;;;;;;7.63;3.73;;;22.60;99.90;;;;;;5041352;28;20480;-76
2022/05/17 09:32:44;;;;;;;4.60;3.03;;;22.70;99.90;;;;;;5041362;28;20463;-75
2022/05/17 09:35:15;;;;;;;4.43;2.87;;;22.90;99.90;;;;;;5036683;28;20507;-75
2022/05/17 09:37:46;;;;;;;6.40;3.87;;;23.20;99.90;;;;;;5035848;28;20719;-75
2022/05/17 09:40:16;;;;;;;6.00;4.10;;;23.50;99.90;;;;;;5032233;28;20460;-74
2022/05/17 09:42:45;;;;;;;8.03;3.90;;;23.60;99.90;;;;;;5041070;28;21076;-75
2022/05/17 09:45:23;;;;;;;11.43;4.00;;;23.70;99.90;;;;;;5034981;28;21073;-75
2022/05/17 09:47:57;;;;;;;8.60;3.50;;;23.70;99.90;;;;;;5038518;28;21002;-75
2022/05/17 09:53:17;;;;;;;4.37;2.43;;;24.30;99.90;;;;;;5040939;28;20788;-75
2022/05/17 09:55:48;;;;;;;4.77;2.97;;;24.60;99.90;;;;;;5037285;28;20549;-75
2022/05/17 09:58:32;;;;;;;3.60;2.30;;;24.70;99.90;;;;;;5038750;28;20489;-75
2022/05/17 10:01:09;;;;;;;4.60;2.67;;;24.80;99.90;;;;;;5035575;28;20804;-76
2022/05/17 10:03:40;;;;;;;4.37;2.37;;;25.00;99.90;;;;;;5031695;28;20482;-75
2022/05/17 10:06:12;;;;;;;4.77;2.70;;;24.70;99.90;;;;;;5038754;28;20482;-76
2022/05/17 10:08:45;;;;;;;3.70;2.30;;;24.30;99.90;;;;;;5039363;28;20457;-76
2022/05/17 10:11:21;;;;;;;3.80;3.00;;;24.70;99.90;;;;;;5037735;28;20865;-75
2022/05/17 10:14:05;;;;;;;4.00;2.70;;;24.30;99.90;;;;;;5035197;28;20516;-75
2022/05/17 10:16:42;;;;;;;3.47;2.50;;;24.10;99.90;;;;;;5034010;28;20498;-76
2022/05/17 10:19:23;;;;;;;8.73;2.80;;;24.00;99.90;;;;;;5033333;28;20497;-75
2022/05/17 10:21:57;;;;;;;6.93;3.47;;;24.10;99.90;;;;;;5037246;28;20461;-75
2022/05/17 10:24:33;;;;;;;5.33;2.80;;;23.90;99.90;;;;;;5040888;28;20568;-75
2022/05/17 10:27:07;;;;;;;6.33;3.20;;;23.60;99.90;;;;;;5033348;28;20459;-75
2022/05/17 10:29:44;;;;;;;4.80;3.13;;;23.00;99.90;;;;;;5038678;28;20461;-75
2022/05/17 10:32:22;;;;;;;8.67;2.70;;;23.00;99.90;;;;;;5034642;28;20978;-75
2022/05/17 10:34:53;;;;;;;5.73;3.13;;;23.40;99.90;;;;;;5030845;28;20493;-75
2022/05/17 10:37:24;;;;;;;4.40;3.73;;;23.70;99.90;;;;;;5033006;28;20487;-75
2022/05/17 10:39:55;;;;;;;6.97;2.97;;;23.60;99.90;;;;;;5034774;28;20905;-74
2022/05/17 10:42:24;;;;;;;9.47;3.63;;;23.50;99.90;;;;;;5035392;28;20464;-74
2022/05/17 10:44:55;;;;;;;8.97;4.77;;;23.50;99.90;;;;;;5036823;28;20893;-74
2022/05/17 10:47:46;;;;;;;8.27;4.07;;;23.30;99.90;;;;;;5034177;28;20517;-75
2022/05/17 10:50:25;;;;;;;8.67;4.20;;;23.40;99.90;;;;;;5037671;28;20544;-76
2022/05/17 10:53:10;;;;;;;6.70;4.20;;;23.70;99.90;;;;;;5035127;28;20466;-74
2022/05/17 10:55:48;;;;;;;8.43;3.47;;;23.90;99.90;;;;;;5031013;28;20796;-76
2022/05/17 10:58:29;;;;;;;5.70;3.77;;;23.90;99.90;;;;;;5033036;28;20896;-75
2022/05/17 11:01:02;;;;;;;4.97;3.90;;;23.80;99.90;;;;;;5034822;28;20986;-74
2022/05/17 11:04:08;;;;;;;8.50;4.40;;;23.80;99.90;;;;;;5036575;28;20779;-74
2022/05/17 11:06:44;;;;;;;9.53;5.60;;;23.90;99.90;;;;;;5040437;28;20470;-74
2022/05/17 11:09:16;;;;;;;8.50;4.60;;;24.10;99.90;;;;;;5040406;28;20459;-75
2022/05/17 11:11:55;;;;;;;7.40;4.73;;;24.20;99.90;;;;;;5037636;28;21122;-75
2022/05/17 11:14:27;;;;;;;10.33;4.97;;;23.60;99.90;;;;;;5039871;28;20513;-75
2022/05/17 11:17:01;;;;;;;4.70;3.53;;;23.60;99.90;;;;;;5037639;28;20473;-75
2022/05/17 11:19:37;;;;;;;13.17;3.83;;;23.80;99.90;;;;;;5037849;28;20482;-75
2022/05/17 11:22:09;;;;;;;9.27;4.87;;;23.50;99.90;;;;;;5038833;28;20484;-75
2022/05/17 11:25:04;;;;;;;6.20;4.43;;;23.60;99.90;;;;;;5041209;28;20486;-75
2022/05/17 11:27:57;;;;;;;11.00;4.60;;;23.50;99.90;;;;;;5042198;28;20622;-75
2022/05/17 11:30:28;;;;;;;7.67;5.90;;;23.90;99.90;;;;;;5042632;28;20475;-76
2022/05/17 11:33:12;;;;;;;6.07;4.57;;;24.20;99.90;;;;;;5042338;28;20459;-75
2022/05/17 11:35:54;;;;;;;5.10;4.50;;;24.30;99.90;;;;;;5042060;28;20463;-74
2022/05/17 11:38:57;;;;;;;5.53;3.80;;;24.30;99.90;;;;;;5035468;28;20485;-75
2022/05/17 11:41:44;;;;;;;9.30;4.63;;;24.20;99.90;;;;;;5045108;28;20477;-74
2022/05/17 11:44:27;;;;;;;13.10;5.10;;;24.10;99.90;;;;;;5041771;28;20494;-74
2022/05/17 11:46:58;;;;;;;6.30;4.40;;;23.90;99.90;;;;;;5035163;28;20701;-75
2022/05/17 11:49:45;;;;;;;9.63;3.70;;;24.00;99.90;;;;;;5035588;28;20829;-75
2022/05/17 11:52:34;;;;;;;9.60;6.00;;;24.10;99.90;;;;;;5040175;28;20467;-75
2022/05/17 11:55:04;;;;;;;8.07;4.43;;;23.80;99.90;;;;;;5038514;28;20489;-75
2022/05/17 11:58:06;;;;;;;8.63;4.37;;;23.90;99.90;;;;;;5038378;28;20464;-75
2022/05/17 12:00:53;;;;;;;7.90;4.40;;;23.80;99.90;;;;;;5038011;28;20458;-75
2022/05/17 12:03:53;;;;;;;7.20;3.40;;;23.90;99.90;;;;;;5038623;28;20550;-75
2022/05/17 12:06:41;;;;;;;4.70;3.73;;;24.30;99.90;;;;;;5042661;28;20713;-75
2022/05/17 12:09:25;;;;;;;9.80;4.70;;;24.30;99.90;;;;;;5042249;28;20517;-75
2022/05/17 12:12:10;;;;;;;4.37;3.37;;;24.50;99.90;;;;;;5039183;28;20951;-75
2022/05/17 12:14:43;;;;;;;5.37;4.63;;;24.80;99.90;;;;;;5041513;28;20593;-75
2022/05/17 12:17:22;;;;;;;17.47;4.70;;;24.40;99.90;;;;;;5031244;28;20616;-75
2022/05/17 12:19:59;;;;;;;9.00;4.00;;;24.50;99.90;;;;;;5033527;28;20483;-75
2022/05/17 12:22:32;;;;;;;13.17;4.03;;;24.40;99.90;;;;;;5037816;28;20520;-75
2022/05/17 12:25:08;;;;;;;5.63;3.80;;;24.30;99.90;;;;;;5032090;28;20565;-75
2022/05/17 12:27:42;;;;;;;5.70;4.10;;;24.10;99.90;;;;;;5037261;28;20492;-75
2022/05/17 12:33:02;;;;;;;7.17;4.37;;;23.90;99.90;;;;;;5038763;28;20603;-75
2022/05/17 12:35:33;;;;;;;10.67;3.83;;;24.00;99.90;;;;;;5036729;28;20482;-75
2022/05/17 12:38:00;;;;;;;5.30;3.63;;;24.10;99.90;;;;;;5035647;28;20503;-75
2022/05/17 12:43:29;;;;;;;7.63;3.80;;;23.90;99.90;;;;;;5034669;28;20933;-76
2022/05/17 12:46:10;;;;;;;12.70;5.00;;;23.90;99.90;;;;;;5050937;22;20644;-77
2022/05/17 12:48:38;;;;;;;16.30;3.60;;;24.00;99.90;;;;;;5032854;28;20453;-77
2022/05/17 12:51:07;;;;;;;12.57;5.07;;;24.30;99.90;;;;;;5037384;28;20856;-78
2022/05/17 12:53:39;;;;;;;6.37;4.30;;;24.10;99.90;;;;;;5036404;28;20475;-77
2022/05/17 12:56:10;;;;;;;9.33;4.47;;;24.30;99.90;;;;;;5035126;28;20536;-76
2022/05/17 12:58:38;;;;;;;8.50;4.77;;;24.50;99.90;;;;;;5038164;28;20494;-78
2022/05/17 13:01:08;;;;;;;6.80;4.00;;;24.50;99.90;;;;;;5037950;28;20459;-77
2022/05/17 13:03:34;;;;;;;5.53;3.80;;;24.30;99.90;;;;;;5036247;28;20466;-75
2022/05/17 13:06:05;;;;;;;6.57;4.37;;;24.10;99.90;;;;;;5038127;28;20493;-77
2022/05/17 13:08:36;;;;;;;10.67;5.50;;;24.00;99.90;;;;;;5036081;28;20490;-78
2022/05/17 13:11:12;;;;;;;7.13;3.40;;;23.80;99.90;;;;;;5032319;28;20559;-76
2022/05/17 13:13:41;;;;;;;4.87;3.80;;;23.90;99.90;;;;;;5032149;28;20458;-77
2022/05/17 13:16:12;;;;;;;8.80;4.00;;;23.50;99.90;;;;;;5040116;28;20985;-78